Impacts METAR Board INFO
IDs:

KMDW - Chicago/Midway Intl, IL, US

Updated at: 1330 UTC 25 Feb 2018
Potential Impact None Slight Moderate High
Time25/01Z 25/02Z 25/03Z 25/04Z 25/05Z 25/06Z 25/07Z 25/08Z 25/09Z 25/10Z 25/11Z 25/12Z 25/13Z
VIS8 8 8 9 8 4 7 10 10 10 10 10 10
CIG7 7 6 6 6 6 10 14 25 21 21 23 27
CoverOVCOVCOVCOVCOVCOVCOVCOVCOVCOVCOVCOVCOVC
FltCatIFRIFRIFRIFRIFRIFRMVFRMVFRMVFRMVFRMVFRMVFRMVFR
WX-RA-RA------RA BR-RA------------
WDir130130130140150170260260260250260250250
WSpd17 15 16 14 14 17 16 22 22 19 26 19 16
WGst22 22 22 25 22 25 23 36 42 31 41 28 22
Raw hourly METARs
KMDW 250053Z 13017G22KT 8SM -RA OVC007 07/06 A2970 RMK AO2 RAB52 SLP065 P0000 T00720061
KMDW 250153Z 13015G22KT 8SM -RA OVC007 07/07 A2963 RMK AO2 RAE02B50DZB02E24 SLP040 P0000 T00720067
KMDW 250253Z 13016G22KT 8SM OVC006 07/07 A2957 RMK AO2 RAE39 PRESFR SLP020 P0000 60000 T00720067 56068
KMDW 250353Z 14014G25KT 9SM OVC006 08/07 A2951 RMK AO2 PRESFR SLP997 T00830072
KMDW 250453Z 15014G22KT 8SM OVC006 09/08 A2945 RMK AO2 PRESFR SLP977 T00890083
KMDW 250553Z 17017G25KT 4SM RA BR BKN006 OVC012 10/09 A2944 RMK AO2 RAB02 SLP972 P0008 60008 T01000094 10100 20061 401000017 56044
KMDW 250653Z 26016G23KT 7SM -RA BKN010 BKN014 OVC042 09/07 A2950 RMK AO2 PK WND 24035/0615 WSHFT 0607 SLP996 P0003 T00890072
KMDW 250753Z 26022G36KT 10SM OVC014 04/02 A2960 RMK AO2 PK WND 27038/0712 RAE04 PRESRR SLP031 P0000 T00390017
KMDW 250853Z 26022G42KT 10SM OVC025 03/M02 A2965 RMK AO2 PK WND 27042/0845 SLP047 60003 T00281017 51070
KMDW 250953Z 25019G31KT 10SM OVC021 02/M02 A2968 RMK AO2 PK WND 26042/0857 SLP059 T00221017
KMDW 251053Z 26026G41KT 10SM OVC021 02/M03 A2974 RMK AO2 PK WND 26041/1050 SLP077 T00171028
KMDW 251153Z 25019G28KT 10SM OVC023 02/M03 A2977 RMK AO2 PK WND 25035/1054 SLP089 60003 70011 T00171028 10111 20011 53041
KMDW 251253Z 25016G22KT 10SM OVC027 02/M03 A2980 RMK AO2 PK WND 26027/1154 SLP096 T00171028